createdAt,value
2023-05-03T00:01:16.378Z,99429.75
2023-05-03T00:06:18.586Z,99427.63
2023-05-03T00:11:21.229Z,99427.27
2023-05-03T00:16:22.980Z,99421.96
2023-05-03T00:21:24.741Z,99423.55
2023-05-03T00:26:28.287Z,99426.04
2023-05-03T00:31:30.063Z,99422.85
2023-05-03T00:36:31.932Z,99420.67
2023-05-03T00:41:33.660Z,99421.78
2023-05-03T00:46:35.637Z,99421.80
2023-05-03T00:51:37.589Z,99416.48
2023-05-03T00:56:48.281Z,99421.43
2023-05-03T01:01:53.541Z,99418.01
2023-05-03T01:07:10.554Z,99414.20
2023-05-03T01:12:12.223Z,99417.96
2023-05-03T01:17:18.330Z,99421.77
2023-05-03T01:22:34.291Z,99425.32
2023-05-03T01:27:37.482Z,99429.48
2023-05-03T01:33:09.249Z,99428.60
2023-05-03T01:38:12.593Z,99429.15
2023-05-03T01:43:16.561Z,99430.03
2023-05-03T01:48:19.934Z,99431.95
2023-05-03T01:53:21.760Z,99431.80
2023-05-03T01:58:23.665Z,99434.41
2023-05-03T02:03:25.350Z,99433.40
2023-05-03T02:08:27.066Z,99437.40
2023-05-03T02:13:28.814Z,99434.24
2023-05-03T02:18:31.507Z,99433.27
2023-05-03T02:23:33.296Z,99434.40
2023-05-03T02:28:35.264Z,99434.33
2023-05-03T02:33:37.231Z,99441.61
2023-05-03T02:38:38.914Z,99438.70
2023-05-03T02:43:40.760Z,99443.14
2023-05-03T02:48:42.576Z,99446.08
2023-05-03T02:53:44.465Z,99449.34
2023-05-03T02:58:46.433Z,99450.52
2023-05-03T03:03:48.770Z,99456.23
2023-05-03T03:08:50.606Z,99462.85
2023-05-03T03:13:53.109Z,99461.73
2023-05-03T03:18:55.855Z,99466.63
2023-05-03T03:23:57.646Z,99467.61
2023-05-03T03:28:59.777Z,99463.98
2023-05-03T03:34:01.571Z,99469.42
2023-05-03T03:39:05.113Z,99472.10
2023-05-03T03:44:07.823Z,99477.23
2023-05-03T03:49:09.683Z,99483.55
2023-05-03T03:54:11.739Z,99484.60
2023-05-03T03:59:14.889Z,99487.16
2023-05-03T04:07:12.925Z,99499.23
2023-05-03T04:12:14.695Z,99503.55
2023-05-03T04:17:17.626Z,99507.77
2023-05-03T04:22:20.075Z,99512.33
2023-05-03T04:27:21.958Z,99519.45
2023-05-03T04:32:24.646Z,99528.82
2023-05-03T04:37:27.493Z,99535.45
2023-05-03T04:42:29.406Z,99542.70
2023-05-03T04:47:31.816Z,99546.37
2023-05-03T04:52:34.937Z,99554.28
2023-05-03T04:57:37.040Z,99559.33
2023-05-03T05:02:40.085Z,99564.35
2023-05-03T05:07:42.253Z,99573.06
2023-05-03T05:12:44.886Z,99580.38
2023-05-03T05:17:48.369Z,99583.69
2023-05-03T05:22:50.293Z,99583.08
2023-05-03T05:27:52.110Z,99584.36
2023-05-03T05:32:54.213Z,99581.27
2023-05-03T05:37:56.119Z,99588.77
2023-05-03T05:42:58.059Z,99590.88
2023-05-03T05:48:00.692Z,99597.77
2023-05-03T05:53:02.601Z,99601.94
2023-05-03T05:58:07.393Z,99609.81
2023-05-03T06:03:15.899Z,99616.44
2023-05-03T06:08:18.205Z,99622.63
2023-05-03T06:13:20.000Z,99626.77
2023-05-03T06:18:22.596Z,99632.95
2023-05-03T06:23:24.341Z,99634.73
2023-05-03T06:28:27.555Z,99634.64
2023-05-03T06:33:30.800Z,99640.45
2023-05-03T06:38:32.706Z,99646.14
2023-05-03T06:43:34.454Z,99646.24
2023-05-03T06:48:38.424Z,99645.67
2023-05-03T06:53:40.297Z,99644.19
2023-05-03T06:58:42.009Z,99648.49
2023-05-03T07:03:43.761Z,99654.13
2023-05-03T07:08:45.833Z,99654.64
2023-05-03T07:13:47.516Z,99652.87
2023-05-03T07:18:49.228Z,99656.88
2023-05-03T07:23:50.933Z,99655.91
2023-05-03T07:28:53.193Z,99658.15
2023-05-03T07:33:55.108Z,99660.58
2023-05-03T07:38:58.656Z,99670.77
2023-05-03T07:44:00.607Z,99673.41
2023-05-03T07:49:04.336Z,99676.98
2023-05-03T07:54:06.386Z,99670.02
2023-05-03T07:59:10.311Z,99675.38
2023-05-03T08:04:12.801Z,99677.63
2023-05-03T08:09:15.759Z,99676.23
2023-05-03T08:14:17.549Z,99677.21
2023-05-03T08:19:19.623Z,99679.38
2023-05-03T08:24:21.799Z,99680.27
2023-05-03T08:29:24.062Z,99681.33
2023-05-03T08:34:26.866Z,99680.85
2023-05-03T08:39:31.182Z,99681.24
2023-05-03T08:44:37.226Z,99685.58
2023-05-03T08:49:39.973Z,99692.59
2023-05-03T08:54:41.719Z,99695.15
2023-05-03T08:59:54.356Z,99697.02
2023-05-03T09:04:56.842Z,99699.91
2023-05-03T09:10:00.396Z,99702.91
2023-05-03T09:15:03.630Z,99703.16
2023-05-03T09:20:08.964Z,99701.60
2023-05-03T09:25:12.164Z,99698.98
2023-05-03T09:30:19.261Z,99707.88
2023-05-03T09:35:21.124Z,99709.23
2023-05-03T09:40:22.845Z,99710.88
2023-05-03T09:45:24.565Z,99720.29
2023-05-03T09:50:26.913Z,99711.33
2023-05-03T09:55:31.717Z,99715.69
2023-05-03T10:00:38.565Z,99715.83
2023-05-03T10:05:47.185Z,99714.05
2023-05-03T10:10:52.146Z,99711.13
2023-05-03T10:16:00.784Z,99707.78
2023-05-03T10:21:09.635Z,99706.62
2023-05-03T10:26:13.526Z,99705.27
2023-05-03T10:31:48.082Z,99705.27
2023-05-03T10:36:55.094Z,99706.35
2023-05-03T10:42:01.689Z,99699.98
2023-05-03T10:47:19.957Z,99705.96
2023-05-03T10:52:39.658Z,99700.77
2023-05-03T10:57:43.627Z,99697.45
2023-05-03T11:03:09.227Z,99700.98
2023-05-03T11:08:17.076Z,99696.07
2023-05-03T11:13:18.904Z,99684.77
2023-05-03T11:18:20.835Z,99697.11
2023-05-03T11:23:28.483Z,99695.61
2023-05-03T11:28:41.993Z,99695.83
2023-05-03T11:33:44.611Z,99695.59
2023-05-03T11:38:47.716Z,99691.61
2023-05-03T11:44:00.777Z,99692.33
2023-05-03T11:49:06.269Z,99685.46
2023-05-03T11:54:21.187Z,99679.80
2023-05-03T11:59:40.837Z,99672.67
2023-05-03T12:04:45.166Z,99675.05
2023-05-03T12:09:59.595Z,99678.41
2023-05-03T12:15:11.239Z,99682.69
2023-05-03T12:21:04.416Z,99678.56
2023-05-03T12:25:40.515Z,99670.23
2023-05-03T12:30:46.773Z,99666.40
2023-05-03T12:35:52.570Z,99662.15
2023-05-03T12:40:55.306Z,99664.48
2023-05-03T12:56:13.584Z,99659.25
2023-05-03T13:02:02.859Z,99662.00
2023-05-03T13:06:43.071Z,99661.19
2023-05-03T13:11:48.780Z,99657.36
2023-05-03T13:16:51.466Z,99654.36
2023-05-03T13:21:53.418Z,99650.05
2023-05-03T13:26:55.120Z,99644.83
2023-05-03T13:31:56.884Z,99638.41
2023-05-03T13:36:59.088Z,99634.67
2023-05-03T13:42:01.062Z,99627.20
2023-05-03T13:47:03.427Z,99618.77
2023-05-03T13:52:05.335Z,99617.23
2023-05-03T13:57:07.071Z,99617.83
2023-05-03T14:02:08.864Z,99616.08
2023-05-03T14:07:10.681Z,99616.21
2023-05-03T14:12:12.344Z,99616.32
2023-05-03T14:17:14.432Z,99614.54
2023-05-03T14:22:16.460Z,99616.59
2023-05-03T14:27:21.731Z,99618.97
2023-05-03T14:32:24.447Z,99617.48
2023-05-03T14:37:26.632Z,99618.39
2023-05-03T14:42:32.100Z,99614.13
2023-05-03T14:47:34.630Z,99616.67
2023-05-03T14:52:37.980Z,99615.24
2023-05-03T14:57:39.690Z,99617.02
2023-05-03T15:02:42.565Z,99617.39
2023-05-03T15:07:44.425Z,99616.98
2023-05-03T15:12:46.319Z,99618.33
2023-05-03T15:17:48.094Z,99616.75
2023-05-03T15:22:49.938Z,99616.42
2023-05-03T15:27:52.420Z,99622.77
2023-05-03T15:32:54.627Z,99619.98
2023-05-03T15:37:56.542Z,99618.89
2023-05-03T15:42:58.281Z,99619.52
2023-05-03T15:48:00.306Z,99621.34
2023-05-03T15:53:02.095Z,99623.45
2023-05-03T15:58:03.953Z,99620.77
2023-05-03T16:03:06.043Z,99620.83
2023-05-03T16:08:08.306Z,99619.08
2023-05-03T16:13:10.597Z,99616.63
2023-05-03T16:18:12.747Z,99617.61
2023-05-03T16:23:14.582Z,99615.39
2023-05-03T16:28:16.420Z,99612.60
2023-05-03T16:33:18.286Z,99611.38
2023-05-03T16:38:20.026Z,99609.15
2023-05-03T16:43:21.852Z,99609.67
2023-05-03T16:48:23.924Z,99603.50
2023-05-03T16:53:25.747Z,99611.24
2023-05-03T16:58:27.433Z,99608.34
2023-05-03T17:03:29.184Z,99610.05
2023-05-03T17:08:31.211Z,99608.00
2023-05-03T17:13:33.201Z,99609.34
2023-05-03T17:18:35.845Z,99613.98
2023-05-03T17:23:39.477Z,99612.35
2023-05-03T17:28:41.780Z,99617.36
2023-05-03T17:33:43.548Z,99618.05
2023-05-03T17:38:45.607Z,99623.15
2023-05-03T17:43:48.356Z,99627.05
2023-05-03T17:48:52.214Z,99635.08
2023-05-03T17:53:55.233Z,99641.38
2023-05-03T17:58:57.348Z,99636.01
2023-05-03T18:03:59.332Z,99638.23
2023-05-03T18:09:01.602Z,99645.92
2023-05-03T18:14:03.961Z,99645.20
2023-05-03T18:19:06.142Z,99649.75
2023-05-03T18:24:08.076Z,99653.38
2023-05-03T18:29:10.111Z,99657.48
2023-05-03T18:34:12.180Z,99661.16
2023-05-03T18:39:14.883Z,99663.87
2023-05-03T18:44:17.274Z,99669.27
2023-05-03T18:49:19.132Z,99670.96
2023-05-03T18:54:21.023Z,99672.35
2023-05-03T18:59:22.719Z,99671.45
2023-05-03T19:04:24.613Z,99673.59
2023-05-03T19:09:28.028Z,99676.91
2023-05-03T19:14:29.760Z,99678.54
2023-05-03T19:19:31.469Z,99678.94
2023-05-03T19:24:33.183Z,99685.09
2023-05-03T19:29:34.980Z,99682.43
2023-05-03T19:34:36.688Z,99680.53
2023-05-03T19:39:38.373Z,99685.27
2023-05-03T19:44:40.161Z,99684.94
2023-05-03T19:49:42.380Z,99687.74
2023-05-03T19:54:44.096Z,99688.51
2023-05-03T19:59:47.787Z,99681.77
2023-05-03T20:04:49.812Z,99684.55
2023-05-03T20:09:51.553Z,99690.89
2023-05-03T20:14:55.574Z,99687.23
2023-05-03T20:20:08.600Z,99687.92
2023-05-03T20:25:11.311Z,99686.54
2023-05-03T20:30:13.416Z,99690.27
2023-05-03T20:35:17.019Z,99687.45
2023-05-03T20:40:19.033Z,99681.38
2023-05-03T20:45:20.949Z,99685.82
2023-05-03T20:50:22.828Z,99689.45
2023-05-03T20:55:24.587Z,99689.19
2023-05-03T21:00:26.314Z,99688.52
2023-05-03T21:05:28.915Z,99691.69
2023-05-03T21:10:32.503Z,99695.20
2023-05-03T21:15:44.746Z,99690.75
2023-05-03T21:20:46.997Z,99685.17
2023-05-03T21:25:48.844Z,99685.10
2023-05-03T21:30:50.871Z,99685.53
2023-05-03T21:35:53.046Z,99685.98
2023-05-03T21:41:05.057Z,99687.98
2023-05-03T21:46:08.073Z,99683.55
2023-05-03T21:51:32.393Z,99681.89
2023-05-03T21:56:34.168Z,99689.73
2023-05-03T22:01:35.889Z,99686.46
2023-05-03T22:06:38.201Z,99691.77
2023-05-03T22:11:40.260Z,99686.08
2023-05-03T22:16:42.442Z,99696.26
2023-05-03T22:21:44.148Z,99693.92
2023-05-03T22:26:46.371Z,99693.39
2023-05-03T22:31:48.282Z,99689.65
2023-05-03T22:36:50.049Z,99681.64
2023-05-03T22:41:51.748Z,99678.50
2023-05-03T22:46:53.655Z,99673.66
2023-05-03T22:51:55.298Z,99676.50
2023-05-03T22:56:58.620Z,99678.89
2023-05-03T23:02:00.393Z,99681.65
2023-05-03T23:07:02.429Z,99677.82
2023-05-03T23:12:05.373Z,99669.59
2023-05-03T23:17:10.388Z,99664.33
2023-05-03T23:22:12.162Z,99666.52
2023-05-03T23:27:13.951Z,99666.17
2023-05-03T23:32:18.397Z,99667.88
2023-05-03T23:37:20.702Z,99663.25
2023-05-03T23:42:23.533Z,99666.75
2023-05-03T23:47:28.166Z,99664.76
2023-05-03T23:52:33.159Z,99662.11
2023-05-03T23:57:35.008Z,99661.46
